sensor_id;sensor_type;location;lat;lon;timestamp;P1;durP1;ratioP1;P2;durP2;ratioP2
7707;SDS011;3896;48.758;8.888;2022-07-23T00:00:08;5.30;;;4.83;;
7707;SDS011;3896;48.758;8.888;2022-07-23T00:02:34;5.17;;;4.67;;
7707;SDS011;3896;48.758;8.888;2022-07-23T00:05:00;6.10;;;5.07;;
7707;SDS011;3896;48.758;8.888;2022-07-23T00:07:25;5.43;;;4.67;;
7707;SDS011;3896;48.758;8.888;2022-07-23T00:09:51;4.87;;;4.47;;
7707;SDS011;3896;48.758;8.888;2022-07-23T00:12:17;6.67;;;4.97;;
7707;SDS011;3896;48.758;8.888;2022-07-23T00:14:42;5.67;;;5.03;;
7707;SDS011;3896;48.758;8.888;2022-07-23T00:17:08;5.10;;;4.70;;
7707;SDS011;3896;48.758;8.888;2022-07-23T00:19:33;7.47;;;5.20;;
7707;SDS011;3896;48.758;8.888;2022-07-23T00:21:59;4.80;;;4.33;;
7707;SDS011;3896;48.758;8.888;2022-07-23T00:24:24;5.33;;;4.70;;
7707;SDS011;3896;48.758;8.888;2022-07-23T00:26:50;4.83;;;4.43;;
7707;SDS011;3896;48.758;8.888;2022-07-23T00:29:16;5.53;;;5.03;;
7707;SDS011;3896;48.758;8.888;2022-07-23T00:31:42;6.03;;;5.50;;
7707;SDS011;3896;48.758;8.888;2022-07-23T00:34:07;5.17;;;4.77;;
7707;SDS011;3896;48.758;8.888;2022-07-23T00:36:33;5.37;;;4.80;;
7707;SDS011;3896;48.758;8.888;2022-07-23T00:38:58;5.60;;;5.10;;
7707;SDS011;3896;48.758;8.888;2022-07-23T00:41:24;5.20;;;4.70;;
7707;SDS011;3896;48.758;8.888;2022-07-23T00:43:50;5.73;;;5.13;;
7707;SDS011;3896;48.758;8.888;2022-07-23T00:46:22;4.80;;;4.40;;
7707;SDS011;3896;48.758;8.888;2022-07-23T00:48:48;5.03;;;4.63;;
7707;SDS011;3896;48.758;8.888;2022-07-23T00:51:17;4.90;;;4.50;;
7707;SDS011;3896;48.758;8.888;2022-07-23T00:53:43;5.03;;;4.53;;
7707;SDS011;3896;48.758;8.888;2022-07-23T00:56:09;5.27;;;4.87;;
7707;SDS011;3896;48.758;8.888;2022-07-23T00:58:36;5.57;;;5.00;;
7707;SDS011;3896;48.758;8.888;2022-07-23T01:01:03;4.83;;;4.27;;
7707;SDS011;3896;48.758;8.888;2022-07-23T01:03:29;5.30;;;4.80;;
7707;SDS011;3896;48.758;8.888;2022-07-23T01:05:55;4.73;;;4.33;;
7707;SDS011;3896;48.758;8.888;2022-07-23T01:08:21;5.03;;;4.57;;
7707;SDS011;3896;48.758;8.888;2022-07-23T01:10:47;5.40;;;5.00;;
7707;SDS011;3896;48.758;8.888;2022-07-23T01:13:13;4.97;;;4.60;;
7707;SDS011;3896;48.758;8.888;2022-07-23T01:15:39;4.67;;;4.37;;
7707;SDS011;3896;48.758;8.888;2022-07-23T01:18:05;4.83;;;4.37;;
7707;SDS011;3896;48.758;8.888;2022-07-23T01:20:32;4.80;;;4.40;;
7707;SDS011;3896;48.758;8.888;2022-07-23T01:22:58;4.90;;;4.40;;
7707;SDS011;3896;48.758;8.888;2022-07-23T01:25:24;5.00;;;4.50;;
7707;SDS011;3896;48.758;8.888;2022-07-23T01:27:51;4.60;;;4.20;;
7707;SDS011;3896;48.758;8.888;2022-07-23T01:30:18;4.90;;;4.50;;
7707;SDS011;3896;48.758;8.888;2022-07-23T01:32:44;4.83;;;4.37;;
7707;SDS011;3896;48.758;8.888;2022-07-23T01:35:10;4.83;;;4.30;;
7707;SDS011;3896;48.758;8.888;2022-07-23T01:37:36;4.70;;;4.33;;
7707;SDS011;3896;48.758;8.888;2022-07-23T01:40:02;4.77;;;4.37;;
7707;SDS011;3896;48.758;8.888;2022-07-23T01:42:29;4.60;;;4.17;;
7707;SDS011;3896;48.758;8.888;2022-07-23T01:44:54;4.40;;;3.97;;
7707;SDS011;3896;48.758;8.888;2022-07-23T01:47:20;4.13;;;3.83;;
7707;SDS011;3896;48.758;8.888;2022-07-23T01:49:46;4.80;;;4.40;;
7707;SDS011;3896;48.758;8.888;2022-07-23T01:52:12;5.13;;;4.73;;
7707;SDS011;3896;48.758;8.888;2022-07-23T01:54:37;4.20;;;3.90;;
7707;SDS011;3896;48.758;8.888;2022-07-23T01:57:04;4.87;;;4.33;;
7707;SDS011;3896;48.758;8.888;2022-07-23T01:59:30;4.83;;;4.40;;
7707;SDS011;3896;48.758;8.888;2022-07-23T02:01:56;4.67;;;4.27;;
7707;SDS011;3896;48.758;8.888;2022-07-23T02:04:22;4.70;;;4.13;;
7707;SDS011;3896;48.758;8.888;2022-07-23T02:06:50;4.67;;;4.23;;
7707;SDS011;3896;48.758;8.888;2022-07-23T02:09:16;5.20;;;4.43;;
7707;SDS011;3896;48.758;8.888;2022-07-23T02:11:42;4.60;;;4.20;;
7707;SDS011;3896;48.758;8.888;2022-07-23T02:14:08;4.43;;;4.03;;
7707;SDS011;3896;48.758;8.888;2022-07-23T02:16:33;5.00;;;4.43;;
7707;SDS011;3896;48.758;8.888;2022-07-23T02:18:59;5.00;;;4.33;;
7707;SDS011;3896;48.758;8.888;2022-07-23T02:21:24;4.83;;;4.43;;
7707;SDS011;3896;48.758;8.888;2022-07-23T02:23:50;6.57;;;4.63;;
7707;SDS011;3896;48.758;8.888;2022-07-23T02:26:16;7.07;;;4.57;;
7707;SDS011;3896;48.758;8.888;2022-07-23T02:28:41;4.73;;;4.33;;
7707;SDS011;3896;48.758;8.888;2022-07-23T02:31:07;6.03;;;4.70;;
7707;SDS011;3896;48.758;8.888;2022-07-23T02:33:33;4.37;;;4.07;;
7707;SDS011;3896;48.758;8.888;2022-07-23T02:35:59;4.77;;;4.37;;
7707;SDS011;3896;48.758;8.888;2022-07-23T02:38:25;4.20;;;3.90;;
7707;SDS011;3896;48.758;8.888;2022-07-23T02:40:50;4.77;;;4.33;;
7707;SDS011;3896;48.758;8.888;2022-07-23T02:43:16;5.30;;;4.80;;
7707;SDS011;3896;48.758;8.888;2022-07-23T02:45:42;4.70;;;4.27;;
7707;SDS011;3896;48.758;8.888;2022-07-23T02:48:07;4.73;;;4.40;;
7707;SDS011;3896;48.758;8.888;2022-07-23T02:50:33;5.10;;;4.60;;
7707;SDS011;3896;48.758;8.888;2022-07-23T02:52:59;4.80;;;4.40;;
7707;SDS011;3896;48.758;8.888;2022-07-23T02:55:25;4.80;;;4.40;;
7707;SDS011;3896;48.758;8.888;2022-07-23T02:57:51;5.47;;;4.93;;
7707;SDS011;3896;48.758;8.888;2022-07-23T03:00:16;4.60;;;4.30;;
7707;SDS011;3896;48.758;8.888;2022-07-23T03:02:42;4.43;;;4.03;;
7707;SDS011;3896;48.758;8.888;2022-07-23T03:05:08;5.47;;;4.73;;
7707;SDS011;3896;48.758;8.888;2022-07-23T03:07:46;5.97;;;4.50;;
7707;SDS011;3896;48.758;8.888;2022-07-23T03:10:11;5.00;;;4.50;;
7707;SDS011;3896;48.758;8.888;2022-07-23T03:12:37;5.00;;;4.50;;
7707;SDS011;3896;48.758;8.888;2022-07-23T03:15:03;4.60;;;4.20;;
7707;SDS011;3896;48.758;8.888;2022-07-23T03:17:29;4.63;;;4.23;;
7707;SDS011;3896;48.758;8.888;2022-07-23T03:19:54;4.93;;;4.50;;
7707;SDS011;3896;48.758;8.888;2022-07-23T03:22:20;4.87;;;4.53;;
7707;SDS011;3896;48.758;8.888;2022-07-23T03:24:45;5.30;;;4.83;;
7707;SDS011;3896;48.758;8.888;2022-07-23T03:27:24;4.60;;;4.20;;
7707;SDS011;3896;48.758;8.888;2022-07-23T03:29:52;5.40;;;4.90;;
7707;SDS011;3896;48.758;8.888;2022-07-23T03:32:19;4.63;;;4.23;;
7707;SDS011;3896;48.758;8.888;2022-07-23T03:34:46;5.17;;;4.37;;
7707;SDS011;3896;48.758;8.888;2022-07-23T03:37:11;4.80;;;4.40;;
7707;SDS011;3896;48.758;8.888;2022-07-23T03:39:37;4.53;;;4.13;;
7707;SDS011;3896;48.758;8.888;2022-07-23T03:42:03;4.77;;;4.37;;
7707;SDS011;3896;48.758;8.888;2022-07-23T03:44:29;4.40;;;4.00;;
7707;SDS011;3896;48.758;8.888;2022-07-23T03:46:55;5.20;;;4.50;;
7707;SDS011;3896;48.758;8.888;2022-07-23T03:49:21;5.13;;;4.67;;
7707;SDS011;3896;48.758;8.888;2022-07-23T03:51:46;5.47;;;4.97;;
7707;SDS011;3896;48.758;8.888;2022-07-23T03:54:12;5.23;;;4.37;;
7707;SDS011;3896;48.758;8.888;2022-07-23T03:56:38;4.70;;;4.30;;
7707;SDS011;3896;48.758;8.888;2022-07-23T03:59:04;4.47;;;4.17;;
7707;SDS011;3896;48.758;8.888;2022-07-23T04:01:29;5.03;;;4.53;;
7707;SDS011;3896;48.758;8.888;2022-07-23T04:03:55;5.30;;;4.70;;
7707;SDS011;3896;48.758;8.888;2022-07-23T04:06:21;5.30;;;4.80;;
7707;SDS011;3896;48.758;8.888;2022-07-23T04:08:47;4.90;;;4.27;;
7707;SDS011;3896;48.758;8.888;2022-07-23T04:11:12;4.90;;;4.50;;
7707;SDS011;3896;48.758;8.888;2022-07-23T04:13:39;5.07;;;4.70;;
7707;SDS011;3896;48.758;8.888;2022-07-23T04:16:05;5.50;;;5.00;;
7707;SDS011;3896;48.758;8.888;2022-07-23T04:18:31;5.00;;;4.60;;
7707;SDS011;3896;48.758;8.888;2022-07-23T04:20:57;7.30;;;5.27;;
7707;SDS011;3896;48.758;8.888;2022-07-23T04:23:23;5.07;;;4.60;;
7707;SDS011;3896;48.758;8.888;2022-07-23T04:25:48;5.63;;;5.03;;
7707;SDS011;3896;48.758;8.888;2022-07-23T04:28:14;5.30;;;4.80;;
7707;SDS011;3896;48.758;8.888;2022-07-23T04:30:40;5.70;;;4.90;;
7707;SDS011;3896;48.758;8.888;2022-07-23T04:33:05;5.13;;;4.73;;
7707;SDS011;3896;48.758;8.888;2022-07-23T04:35:32;6.73;;;5.07;;
7707;SDS011;3896;48.758;8.888;2022-07-23T04:37:58;5.37;;;4.97;;
7707;SDS011;3896;48.758;8.888;2022-07-23T04:40:24;5.50;;;5.10;;
7707;SDS011;3896;48.758;8.888;2022-07-23T04:42:50;5.60;;;5.10;;
7707;SDS011;3896;48.758;8.888;2022-07-23T04:45:16;4.73;;;4.40;;
7707;SDS011;3896;48.758;8.888;2022-07-23T04:47:42;5.57;;;5.07;;
7707;SDS011;3896;48.758;8.888;2022-07-23T04:50:07;6.00;;;4.70;;
7707;SDS011;3896;48.758;8.888;2022-07-23T04:52:33;5.37;;;4.93;;
7707;SDS011;3896;48.758;8.888;2022-07-23T04:54:59;5.40;;;4.87;;
7707;SDS011;3896;48.758;8.888;2022-07-23T04:57:24;5.87;;;5.27;;
7707;SDS011;3896;48.758;8.888;2022-07-23T04:59:50;5.40;;;5.00;;
7707;SDS011;3896;48.758;8.888;2022-07-23T05:02:15;5.70;;;4.43;;
7707;SDS011;3896;48.758;8.888;2022-07-23T05:04:41;5.37;;;4.87;;
7707;SDS011;3896;48.758;8.888;2022-07-23T05:07:07;5.27;;;4.57;;
7707;SDS011;3896;48.758;8.888;2022-07-23T05:09:32;5.53;;;5.03;;
7707;SDS011;3896;48.758;8.888;2022-07-23T05:11:59;5.40;;;4.90;;
7707;SDS011;3896;48.758;8.888;2022-07-23T05:14:25;8.00;;;5.17;;
7707;SDS011;3896;48.758;8.888;2022-07-23T05:16:50;6.20;;;5.60;;
7707;SDS011;3896;48.758;8.888;2022-07-23T05:19:16;5.50;;;4.47;;
7707;SDS011;3896;48.758;8.888;2022-07-23T05:21:41;5.43;;;4.93;;
7707;SDS011;3896;48.758;8.888;2022-07-23T05:24:07;4.93;;;4.60;;
7707;SDS011;3896;48.758;8.888;2022-07-23T05:26:33;5.13;;;4.73;;
7707;SDS011;3896;48.758;8.888;2022-07-23T05:28:58;5.53;;;5.03;;
7707;SDS011;3896;48.758;8.888;2022-07-23T05:31:24;6.00;;;5.50;;
7707;SDS011;3896;48.758;8.888;2022-07-23T05:33:50;6.27;;;5.67;;
7707;SDS011;3896;48.758;8.888;2022-07-23T05:36:15;5.83;;;5.17;;
7707;SDS011;3896;48.758;8.888;2022-07-23T05:38:41;5.27;;;4.70;;
7707;SDS011;3896;48.758;8.888;2022-07-23T05:41:07;5.60;;;5.10;;
7707;SDS011;3896;48.758;8.888;2022-07-23T05:43:32;5.43;;;4.70;;
7707;SDS011;3896;48.758;8.888;2022-07-23T05:45:58;5.70;;;5.30;;
7707;SDS011;3896;48.758;8.888;2022-07-23T05:48:23;6.10;;;5.50;;
7707;SDS011;3896;48.758;8.888;2022-07-23T05:50:49;4.97;;;4.57;;
7707;SDS011;3896;48.758;8.888;2022-07-23T05:53:15;5.30;;;4.90;;
7707;SDS011;3896;48.758;8.888;2022-07-23T05:55:40;5.43;;;4.93;;
7707;SDS011;3896;48.758;8.888;2022-07-23T05:58:06;6.43;;;4.90;;
7707;SDS011;3896;48.758;8.888;2022-07-23T06:00:32;5.47;;;5.00;;
7707;SDS011;3896;48.758;8.888;2022-07-23T06:02:57;6.00;;;5.27;;
7707;SDS011;3896;48.758;8.888;2022-07-23T06:05:23;5.50;;;5.10;;
7707;SDS011;3896;48.758;8.888;2022-07-23T06:07:49;6.40;;;5.67;;
7707;SDS011;3896;48.758;8.888;2022-07-23T06:10:15;5.53;;;5.00;;
7707;SDS011;3896;48.758;8.888;2022-07-23T06:12:41;5.00;;;4.60;;
7707;SDS011;3896;48.758;8.888;2022-07-23T06:15:07;5.73;;;5.23;;
7707;SDS011;3896;48.758;8.888;2022-07-23T06:17:33;5.87;;;5.37;;
7707;SDS011;3896;48.758;8.888;2022-07-23T06:19:59;5.43;;;4.87;;
7707;SDS011;3896;48.758;8.888;2022-07-23T06:22:25;5.47;;;4.90;;
7707;SDS011;3896;48.758;8.888;2022-07-23T06:24:50;5.40;;;4.90;;
7707;SDS011;3896;48.758;8.888;2022-07-23T06:27:17;5.90;;;5.40;;
7707;SDS011;3896;48.758;8.888;2022-07-23T06:29:43;6.00;;;4.83;;
7707;SDS011;3896;48.758;8.888;2022-07-23T06:32:09;5.97;;;5.07;;
7707;SDS011;3896;48.758;8.888;2022-07-23T06:34:34;6.43;;;5.33;;
7707;SDS011;3896;48.758;8.888;2022-07-23T06:37:00;6.20;;;5.10;;
7707;SDS011;3896;48.758;8.888;2022-07-23T06:39:26;5.27;;;4.87;;
7707;SDS011;3896;48.758;8.888;2022-07-23T06:41:51;5.53;;;5.03;;
7707;SDS011;3896;48.758;8.888;2022-07-23T06:44:17;5.97;;;5.47;;
7707;SDS011;3896;48.758;8.888;2022-07-23T06:46:43;5.77;;;4.83;;
7707;SDS011;3896;48.758;8.888;2022-07-23T06:49:09;5.50;;;5.00;;
7707;SDS011;3896;48.758;8.888;2022-07-23T06:51:35;5.23;;;4.73;;
7707;SDS011;3896;48.758;8.888;2022-07-23T06:54:01;7.77;;;5.67;;
7707;SDS011;3896;48.758;8.888;2022-07-23T06:56:27;6.30;;;4.87;;
7707;SDS011;3896;48.758;8.888;2022-07-23T06:58:52;5.40;;;4.83;;
7707;SDS011;3896;48.758;8.888;2022-07-23T07:01:18;6.10;;;5.23;;
7707;SDS011;3896;48.758;8.888;2022-07-23T07:03:43;6.60;;;5.30;;
7707;SDS011;3896;48.758;8.888;2022-07-23T07:06:09;6.80;;;5.67;;
7707;SDS011;3896;48.758;8.888;2022-07-23T07:08:35;6.07;;;5.43;;
7707;SDS011;3896;48.758;8.888;2022-07-23T07:11:01;5.77;;;5.27;;
7707;SDS011;3896;48.758;8.888;2022-07-23T07:13:26;6.70;;;5.87;;
7707;SDS011;3896;48.758;8.888;2022-07-23T07:15:52;5.70;;;5.30;;
7707;SDS011;3896;48.758;8.888;2022-07-23T07:18:18;6.30;;;5.70;;
7707;SDS011;3896;48.758;8.888;2022-07-23T07:20:43;6.47;;;5.43;;
7707;SDS011;3896;48.758;8.888;2022-07-23T07:23:09;5.97;;;5.00;;
7707;SDS011;3896;48.758;8.888;2022-07-23T07:25:35;6.83;;;6.10;;
7707;SDS011;3896;48.758;8.888;2022-07-23T07:28:00;7.60;;;6.03;;
7707;SDS011;3896;48.758;8.888;2022-07-23T07:30:26;6.53;;;6.00;;
7707;SDS011;3896;48.758;8.888;2022-07-23T07:32:52;7.23;;;5.43;;
7707;SDS011;3896;48.758;8.888;2022-07-23T07:35:17;6.10;;;5.50;;
7707;SDS011;3896;48.758;8.888;2022-07-23T07:37:43;6.70;;;6.20;;
7707;SDS011;3896;48.758;8.888;2022-07-23T07:40:08;7.47;;;5.80;;
7707;SDS011;3896;48.758;8.888;2022-07-23T07:42:34;6.93;;;5.97;;
7707;SDS011;3896;48.758;8.888;2022-07-23T07:45:08;7.03;;;6.33;;
7707;SDS011;3896;48.758;8.888;2022-07-23T07:47:34;6.40;;;5.80;;
7707;SDS011;3896;48.758;8.888;2022-07-23T07:49:59;6.13;;;5.63;;
7707;SDS011;3896;48.758;8.888;2022-07-23T07:52:25;7.60;;;6.90;;
7707;SDS011;3896;48.758;8.888;2022-07-23T07:54:51;6.53;;;5.77;;
7707;SDS011;3896;48.758;8.888;2022-07-23T07:57:16;6.50;;;6.00;;
7707;SDS011;3896;48.758;8.888;2022-07-23T07:59:42;6.37;;;5.77;;
7707;SDS011;3896;48.758;8.888;2022-07-23T08:02:07;6.03;;;5.47;;
7707;SDS011;3896;48.758;8.888;2022-07-23T08:04:33;6.17;;;5.67;;
7707;SDS011;3896;48.758;8.888;2022-07-23T08:06:59;7.33;;;5.57;;
7707;SDS011;3896;48.758;8.888;2022-07-23T08:09:24;6.43;;;5.63;;
7707;SDS011;3896;48.758;8.888;2022-07-23T08:11:53;8.07;;;5.67;;
7707;SDS011;3896;48.758;8.888;2022-07-23T08:14:18;5.73;;;5.23;;
7707;SDS011;3896;48.758;8.888;2022-07-23T08:16:44;5.97;;;5.30;;
7707;SDS011;3896;48.758;8.888;2022-07-23T08:19:09;6.07;;;5.57;;
7707;SDS011;3896;48.758;8.888;2022-07-23T08:21:35;5.90;;;5.40;;
7707;SDS011;3896;48.758;8.888;2022-07-23T08:24:00;5.37;;;4.73;;
7707;SDS011;3896;48.758;8.888;2022-07-23T08:26:26;5.43;;;5.03;;
7707;SDS011;3896;48.758;8.888;2022-07-23T08:28:51;5.60;;;5.10;;
7707;SDS011;3896;48.758;8.888;2022-07-23T08:31:17;5.80;;;5.20;;
7707;SDS011;3896;48.758;8.888;2022-07-23T08:33:43;14.57;;;5.70;;
7707;SDS011;3896;48.758;8.888;2022-07-23T08:36:09;5.73;;;4.93;;
7707;SDS011;3896;48.758;8.888;2022-07-23T08:38:34;5.40;;;4.90;;
7707;SDS011;3896;48.758;8.888;2022-07-23T08:41:00;5.47;;;4.93;;
7707;SDS011;3896;48.758;8.888;2022-07-23T08:43:28;5.10;;;4.70;;
7707;SDS011;3896;48.758;8.888;2022-07-23T08:45:56;5.27;;;4.77;;
7707;SDS011;3896;48.758;8.888;2022-07-23T08:48:27;5.47;;;4.50;;
7707;SDS011;3896;48.758;8.888;2022-07-23T08:50:56;6.53;;;4.80;;
7707;SDS011;3896;48.758;8.888;2022-07-23T08:53:25;5.43;;;4.93;;
7707;SDS011;3896;48.758;8.888;2022-07-23T08:55:53;5.53;;;5.03;;
7707;SDS011;3896;48.758;8.888;2022-07-23T08:58:21;5.57;;;5.07;;
7707;SDS011;3896;48.758;8.888;2022-07-23T09:00:47;5.03;;;4.53;;
7707;SDS011;3896;48.758;8.888;2022-07-23T09:03:18;5.03;;;4.63;;
7707;SDS011;3896;48.758;8.888;2022-07-23T09:05:51;5.40;;;4.93;;
7707;SDS011;3896;48.758;8.888;2022-07-23T09:08:21;5.33;;;4.83;;
7707;SDS011;3896;48.758;8.888;2022-07-23T09:11:07;4.87;;;4.17;;
7707;SDS011;3896;48.758;8.888;2022-07-23T09:13:39;5.40;;;4.90;;
7707;SDS011;3896;48.758;8.888;2022-07-23T09:16:08;4.73;;;4.33;;
7707;SDS011;3896;48.758;8.888;2022-07-23T09:18:38;4.53;;;4.13;;
7707;SDS011;3896;48.758;8.888;2022-07-23T09:21:24;4.60;;;4.13;;
7707;SDS011;3896;48.758;8.888;2022-07-23T09:29:22;5.07;;;4.40;;
7707;SDS011;3896;48.758;8.888;2022-07-23T09:34:38;4.63;;;4.27;;
7707;SDS011;3896;48.758;8.888;2022-07-23T09:37:10;4.53;;;4.20;;
7707;SDS011;3896;48.758;8.888;2022-07-23T09:39:40;5.00;;;4.50;;
7707;SDS011;3896;48.758;8.888;2022-07-23T09:44:52;4.50;;;4.10;;
7707;SDS011;3896;48.758;8.888;2022-07-23T09:47:19;4.90;;;4.40;;
7707;SDS011;3896;48.758;8.888;2022-07-23T09:50:01;4.83;;;4.40;;
7707;SDS011;3896;48.758;8.888;2022-07-23T09:52:34;4.60;;;4.30;;
7707;SDS011;3896;48.758;8.888;2022-07-23T09:55:02;5.27;;;4.83;;
7707;SDS011;3896;48.758;8.888;2022-07-23T09:57:29;5.80;;;5.20;;
7707;SDS011;3896;48.758;8.888;2022-07-23T09:59:58;5.05;;;4.65;;
7707;SDS011;3896;48.758;8.888;2022-07-23T10:02:27;5.20;;;4.80;;
7707;SDS011;3896;48.758;8.888;2022-07-23T10:04:56;5.03;;;4.63;;
7707;SDS011;3896;48.758;8.888;2022-07-23T10:07:22;5.13;;;4.23;;
7707;SDS011;3896;48.758;8.888;2022-07-23T10:09:51;5.03;;;4.68;;
7707;SDS011;3896;48.758;8.888;2022-07-23T10:12:19;5.07;;;4.68;;
7707;SDS011;3896;48.758;8.888;2022-07-23T10:14:49;5.13;;;4.83;;
7707;SDS011;3896;48.758;8.888;2022-07-23T10:17:15;4.43;;;4.00;;
7707;SDS011;3896;48.758;8.888;2022-07-23T10:19:41;4.77;;;4.37;;
7707;SDS011;3896;48.758;8.888;2022-07-23T10:22:11;5.40;;;4.50;;
7707;SDS011;3896;48.758;8.888;2022-07-23T10:27:45;4.50;;;4.10;;
7707;SDS011;3896;48.758;8.888;2022-07-23T10:36:01;5.25;;;4.78;;
7707;SDS011;3896;48.758;8.888;2022-07-23T10:38:36;4.65;;;4.25;;
7707;SDS011;3896;48.758;8.888;2022-07-23T10:41:33;5.00;;;4.50;;
7707;SDS011;3896;48.758;8.888;2022-07-23T10:44:10;4.47;;;4.18;;
7707;SDS011;3896;48.758;8.888;2022-07-23T10:47:01;4.53;;;4.18;;
7707;SDS011;3896;48.758;8.888;2022-07-23T10:49:29;4.70;;;4.30;;
7707;SDS011;3896;48.758;8.888;2022-07-23T10:57:06;4.50;;;4.20;;
7707;SDS011;3896;48.758;8.888;2022-07-23T11:02:30;5.13;;;4.47;;
7707;SDS011;3896;48.758;8.888;2022-07-23T11:05:15;4.80;;;4.50;;
7707;SDS011;3896;48.758;8.888;2022-07-23T11:10:33;5.03;;;4.63;;
7707;SDS011;3896;48.758;8.888;2022-07-23T11:36:56;4.88;;;4.38;;
7707;SDS011;3896;48.758;8.888;2022-07-23T11:39:22;6.53;;;4.90;;
7707;SDS011;3896;48.758;8.888;2022-07-23T11:41:51;4.78;;;4.45;;
7707;SDS011;3896;48.758;8.888;2022-07-23T11:44:30;5.93;;;4.70;;
7707;SDS011;3896;48.758;8.888;2022-07-23T11:46:57;5.25;;;4.75;;
7707;SDS011;3896;48.758;8.888;2022-07-23T11:49:27;5.25;;;4.85;;
7707;SDS011;3896;48.758;8.888;2022-07-23T11:57:16;4.65;;;4.35;;
7707;SDS011;3896;48.758;8.888;2022-07-23T11:59:42;8.32;;;4.75;;
7707;SDS011;3896;48.758;8.888;2022-07-23T12:02:11;5.28;;;4.88;;
7707;SDS011;3896;48.758;8.888;2022-07-23T12:04:43;6.20;;;4.70;;
7707;SDS011;3896;48.758;8.888;2022-07-23T12:09:57;4.45;;;4.15;;
7707;SDS011;3896;48.758;8.888;2022-07-23T12:12:26;5.68;;;4.85;;
7707;SDS011;3896;48.758;8.888;2022-07-23T12:14:57;4.63;;;4.32;;
7707;SDS011;3896;48.758;8.888;2022-07-23T12:17:27;4.95;;;4.55;;
7707;SDS011;3896;48.758;8.888;2022-07-23T12:19:54;7.32;;;5.72;;
7707;SDS011;3896;48.758;8.888;2022-07-23T12:22:23;5.03;;;4.72;;
7707;SDS011;3896;48.758;8.888;2022-07-23T12:24:54;4.50;;;4.20;;
7707;SDS011;3896;48.758;8.888;2022-07-23T12:27:21;5.45;;;4.95;;
7707;SDS011;3896;48.758;8.888;2022-07-23T12:29:47;5.50;;;5.00;;
7707;SDS011;3896;48.758;8.888;2022-07-23T12:32:20;5.10;;;4.60;;
7707;SDS011;3896;48.758;8.888;2022-07-23T12:34:47;5.05;;;4.65;;
7707;SDS011;3896;48.758;8.888;2022-07-23T12:37:25;5.72;;;5.07;;
7707;SDS011;3896;48.758;8.888;2022-07-23T12:40:18;4.63;;;4.32;;
7707;SDS011;3896;48.758;8.888;2022-07-23T12:42:46;4.75;;;4.35;;
7707;SDS011;3896;48.758;8.888;2022-07-23T12:45:16;5.50;;;5.10;;
7707;SDS011;3896;48.758;8.888;2022-07-23T12:47:58;4.72;;;4.30;;
7707;SDS011;3896;48.758;8.888;2022-07-23T12:56:14;5.57;;;5.07;;
7707;SDS011;3896;48.758;8.888;2022-07-23T12:58:45;5.10;;;4.60;;
7707;SDS011;3896;48.758;8.888;2022-07-23T13:01:36;5.25;;;4.80;;
7707;SDS011;3896;48.758;8.888;2022-07-23T13:04:16;5.00;;;4.60;;
7707;SDS011;3896;48.758;8.888;2022-07-23T13:06:54;5.32;;;4.82;;
7707;SDS011;3896;48.758;8.888;2022-07-23T13:09:26;5.13;;;4.72;;
7707;SDS011;3896;48.758;8.888;2022-07-23T13:11:54;6.00;;;5.50;;
7707;SDS011;3896;48.758;8.888;2022-07-23T13:14:20;5.25;;;4.75;;
7707;SDS011;3896;48.758;8.888;2022-07-23T13:16:47;5.78;;;5.28;;
7707;SDS011;3896;48.758;8.888;2022-07-23T13:19:14;4.82;;;4.43;;
7707;SDS011;3896;48.758;8.888;2022-07-23T13:21:40;5.78;;;5.28;;
7707;SDS011;3896;48.758;8.888;2022-07-23T13:24:07;4.97;;;4.57;;
7707;SDS011;3896;48.758;8.888;2022-07-23T13:26:33;5.53;;;5.05;;
7707;SDS011;3896;48.758;8.888;2022-07-23T13:28:58;4.88;;;4.47;;
7707;SDS011;3896;48.758;8.888;2022-07-23T13:31:24;5.20;;;4.80;;
7707;SDS011;3896;48.758;8.888;2022-07-23T13:33:50;4.90;;;4.60;;
7707;SDS011;3896;48.758;8.888;2022-07-23T13:36:15;5.95;;;5.35;;
7707;SDS011;3896;48.758;8.888;2022-07-23T13:38:41;5.50;;;5.10;;
7707;SDS011;3896;48.758;8.888;2022-07-23T13:41:07;5.40;;;4.90;;
7707;SDS011;3896;48.758;8.888;2022-07-23T13:43:32;5.75;;;4.85;;
7707;SDS011;3896;48.758;8.888;2022-07-23T13:45:59;5.20;;;4.80;;
7707;SDS011;3896;48.758;8.888;2022-07-23T13:48:25;5.70;;;5.18;;
7707;SDS011;3896;48.758;8.888;2022-07-23T13:50:51;5.20;;;4.72;;
7707;SDS011;3896;48.758;8.888;2022-07-23T13:53:20;5.70;;;5.20;;
7707;SDS011;3896;48.758;8.888;2022-07-23T13:55:49;4.97;;;4.47;;
7707;SDS011;3896;48.758;8.888;2022-07-23T13:58:16;5.70;;;5.15;;
7707;SDS011;3896;48.758;8.888;2022-07-23T14:00:44;5.22;;;4.82;;
7707;SDS011;3896;48.758;8.888;2022-07-23T14:03:12;5.03;;;4.63;;
7707;SDS011;3896;48.758;8.888;2022-07-23T14:05:38;5.60;;;5.10;;
7707;SDS011;3896;48.758;8.888;2022-07-23T14:08:04;5.25;;;4.85;;
7707;SDS011;3896;48.758;8.888;2022-07-23T14:10:30;5.47;;;4.85;;
7707;SDS011;3896;48.758;8.888;2022-07-23T14:12:55;5.38;;;4.88;;
7707;SDS011;3896;48.758;8.888;2022-07-23T14:15:23;5.35;;;4.35;;
7707;SDS011;3896;48.758;8.888;2022-07-23T14:17:51;5.40;;;4.90;;
7707;SDS011;3896;48.758;8.888;2022-07-23T14:20:18;5.00;;;4.60;;
7707;SDS011;3896;48.758;8.888;2022-07-23T14:22:45;5.25;;;4.80;;
7707;SDS011;3896;48.758;8.888;2022-07-23T14:25:11;5.25;;;4.75;;
7707;SDS011;3896;48.758;8.888;2022-07-23T14:27:37;5.47;;;5.07;;
7707;SDS011;3896;48.758;8.888;2022-07-23T14:30:04;5.35;;;4.95;;
7707;SDS011;3896;48.758;8.888;2022-07-23T14:32:31;4.82;;;4.43;;
7707;SDS011;3896;48.758;8.888;2022-07-23T14:34:57;5.35;;;4.93;;
7707;SDS011;3896;48.758;8.888;2022-07-23T14:37:22;5.03;;;4.63;;
7707;SDS011;3896;48.758;8.888;2022-07-23T14:39:49;5.38;;;4.82;;
7707;SDS011;3896;48.758;8.888;2022-07-23T14:42:15;5.45;;;5.05;;
7707;SDS011;3896;48.758;8.888;2022-07-23T14:44:41;5.35;;;4.85;;
7707;SDS011;3896;48.758;8.888;2022-07-23T14:47:07;5.28;;;4.78;;
7707;SDS011;3896;48.758;8.888;2022-07-23T14:49:33;5.68;;;4.68;;
7707;SDS011;3896;48.758;8.888;2022-07-23T14:51:59;5.30;;;4.90;;
7707;SDS011;3896;48.758;8.888;2022-07-23T14:54:26;5.82;;;5.32;;
7707;SDS011;3896;48.758;8.888;2022-07-23T14:56:53;5.82;;;4.95;;
7707;SDS011;3896;48.758;8.888;2022-07-23T14:59:20;5.68;;;5.28;;
7707;SDS011;3896;48.758;8.888;2022-07-23T15:01:45;5.32;;;4.90;;
7707;SDS011;3896;48.758;8.888;2022-07-23T15:04:11;5.30;;;4.85;;
7707;SDS011;3896;48.758;8.888;2022-07-23T15:06:37;5.10;;;4.75;;
7707;SDS011;3896;48.758;8.888;2022-07-23T15:09:04;5.47;;;5.03;;
7707;SDS011;3896;48.758;8.888;2022-07-23T15:11:30;5.53;;;5.13;;
7707;SDS011;3896;48.758;8.888;2022-07-23T15:13:59;5.22;;;4.93;;
7707;SDS011;3896;48.758;8.888;2022-07-23T15:16:28;5.35;;;4.93;;
7707;SDS011;3896;48.758;8.888;2022-07-23T15:18:54;5.97;;;5.45;;
7707;SDS011;3896;48.758;8.888;2022-07-23T15:21:20;6.00;;;5.50;;
7707;SDS011;3896;48.758;8.888;2022-07-23T15:23:45;6.18;;;5.57;;
7707;SDS011;3896;48.758;8.888;2022-07-23T15:26:11;5.78;;;5.32;;
7707;SDS011;3896;48.758;8.888;2022-07-23T15:28:39;5.57;;;5.05;;
7707;SDS011;3896;48.758;8.888;2022-07-23T15:31:05;5.75;;;5.25;;
7707;SDS011;3896;48.758;8.888;2022-07-23T15:33:31;6.18;;;5.57;;
7707;SDS011;3896;48.758;8.888;2022-07-23T15:35:56;5.78;;;5.38;;
7707;SDS011;3896;48.758;8.888;2022-07-23T15:38:24;6.63;;;5.68;;
7707;SDS011;3896;48.758;8.888;2022-07-23T15:40:50;5.65;;;5.25;;
7707;SDS011;3896;48.758;8.888;2022-07-23T15:43:16;5.47;;;5.07;;
7707;SDS011;3896;48.758;8.888;2022-07-23T15:45:42;6.88;;;5.22;;
7707;SDS011;3896;48.758;8.888;2022-07-23T15:48:09;6.20;;;5.70;;
7707;SDS011;3896;48.758;8.888;2022-07-23T15:50:35;5.05;;;4.55;;
7707;SDS011;3896;48.758;8.888;2022-07-23T15:53:00;5.82;;;5.43;;
7707;SDS011;3896;48.758;8.888;2022-07-23T15:55:26;5.40;;;4.97;;
7707;SDS011;3896;48.758;8.888;2022-07-23T15:57:53;5.80;;;5.38;;
7707;SDS011;3896;48.758;8.888;2022-07-23T16:00:18;6.03;;;5.43;;
7707;SDS011;3896;48.758;8.888;2022-07-23T16:02:44;6.07;;;5.60;;
7707;SDS011;3896;48.758;8.888;2022-07-23T16:05:10;6.53;;;5.93;;
7707;SDS011;3896;48.758;8.888;2022-07-23T16:07:37;5.45;;;5.05;;
7707;SDS011;3896;48.758;8.888;2022-07-23T16:10:04;6.03;;;5.53;;
7707;SDS011;3896;48.758;8.888;2022-07-23T16:12:30;6.45;;;5.85;;
7707;SDS011;3896;48.758;8.888;2022-07-23T16:14:56;5.35;;;4.82;;
7707;SDS011;3896;48.758;8.888;2022-07-23T16:17:21;6.57;;;5.95;;
7707;SDS011;3896;48.758;8.888;2022-07-23T16:19:47;5.90;;;5.43;;
7707;SDS011;3896;48.758;8.888;2022-07-23T16:22:13;5.80;;;5.30;;